Time;durP1;ratioP1;P1;durP2;ratioP2;P2;SDS_P1;SDS_P2;PMS_P1;PMS_P2;Temp;Humidity;BMP_temperature;BMP_pressure;BME280_temperature;BME280_humidity;BME280_pressure;Samples;Min_cycle;Max_cycle;Signal;HPM_P1;HPM_P2
2022/07/30 00:02:22;;;;;;;3.83;1.50;;;16.70;78.10;;;;;;5064576;28;20029;-80
2022/07/30 00:04:48;;;;;;;2.80;1.60;;;16.70;78.10;;;;;;5072306;28;20576;-79
2022/07/30 00:07:14;;;;;;;3.17;1.42;;;16.70;78.30;;;;;;5072509;28;20024;-80
2022/07/30 00:09:40;;;;;;;1.45;1.15;;;16.70;78.50;;;;;;5072290;28;20358;-80
2022/07/30 00:12:07;;;;;;;4.35;1.40;;;16.70;78.40;;;;;;5072113;28;20027;-80
2022/07/30 00:14:33;;;;;;;5.47;1.87;;;16.70;78.60;;;;;;5054235;28;20021;-80
2022/07/30 00:17:00;;;;;;;1.70;1.23;;;16.60;78.70;;;;;;5072094;28;20036;-80
2022/07/30 00:19:26;;;;;;;5.47;1.93;;;16.60;79.00;;;;;;5071987;28;20009;-80
2022/07/30 00:21:53;;;;;;;2.75;1.58;;;16.50;79.30;;;;;;5072003;28;20031;-80
2022/07/30 00:24:20;;;;;;;1.80;1.40;;;16.50;79.60;;;;;;5053742;28;20417;-80
2022/07/30 00:26:46;;;;;;;2.85;1.70;;;16.50;79.90;;;;;;5071985;28;20024;-81
2022/07/30 00:29:13;;;;;;;2.85;1.45;;;16.50;80.30;;;;;;5068152;28;20516;-80
2022/07/30 00:31:39;;;;;;;2.10;1.60;;;16.40;80.90;;;;;;5054314;28;20064;-79
2022/07/30 00:34:05;;;;;;;4.97;1.90;;;16.40;80.40;;;;;;5070960;28;20161;-79
2022/07/30 00:36:30;;;;;;;2.67;1.60;;;16.40;80.60;;;;;;5071887;28;20063;-80
2022/07/30 00:38:56;;;;;;;3.55;2.00;;;16.40;80.70;;;;;;5071810;28;20059;-79
2022/07/30 00:41:22;;;;;;;3.13;1.70;;;16.40;81.10;;;;;;5071792;28;20056;-79
2022/07/30 00:43:48;;;;;;;4.78;1.88;;;16.30;81.20;;;;;;5071905;28;20489;-80
2022/07/30 00:46:14;;;;;;;9.25;1.88;;;16.40;81.40;;;;;;5071986;28;20042;-80
2022/07/30 00:48:41;;;;;;;4.60;2.08;;;16.40;81.60;;;;;;5072879;28;20021;-79
2022/07/30 00:51:07;;;;;;;3.70;2.50;;;16.30;81.90;;;;;;5071890;28;20034;-80
2022/07/30 00:53:33;;;;;;;5.53;1.85;;;16.30;82.30;;;;;;5071716;28;20111;-80
2022/07/30 00:55:59;;;;;;;4.78;1.80;;;16.30;82.50;;;;;;5071340;28;20138;-80
2022/07/30 00:58:25;;;;;;;5.20;2.28;;;16.20;82.70;;;;;;5071587;28;20020;-80
2022/07/30 01:00:51;;;;;;;3.50;2.10;;;16.20;83.60;;;;;;5070749;28;20501;-80
2022/07/30 01:03:17;;;;;;;6.63;2.42;;;16.20;84.70;;;;;;5065634;28;20016;-80
2022/07/30 01:05:43;;;;;;;6.47;2.45;;;16.20;85.50;;;;;;5072169;28;20028;-80
2022/07/30 01:08:09;;;;;;;4.65;3.00;;;16.20;85.90;;;;;;5071199;28;20039;-80
2022/07/30 01:10:34;;;;;;;3.20;2.22;;;16.20;86.30;;;;;;5071375;28;20035;-80
2022/07/30 01:13:00;;;;;;;6.35;2.67;;;16.10;86.40;;;;;;5071277;28;20025;-80
2022/07/30 01:15:27;;;;;;;7.25;2.40;;;16.10;86.80;;;;;;5071682;28;20032;-80
2022/07/30 01:17:57;;;;;;;6.40;2.88;;;16.00;86.40;;;;;;5071472;28;20021;-80
2022/07/30 01:20:47;;;;;;;5.60;2.42;;;16.00;86.40;;;;;;5071361;28;20393;-81
2022/07/30 01:23:24;;;;;;;5.38;2.50;;;16.00;86.50;;;;;;5071041;28;20043;-80
2022/07/30 01:26:06;;;;;;;7.93;2.88;;;16.00;87.40;;;;;;5071358;28;20025;-80
2022/07/30 01:28:41;;;;;;;4.43;2.22;;;15.90;87.80;;;;;;5067826;28;20033;-81
2022/07/30 01:31:09;;;;;;;3.60;2.80;;;15.90;88.30;;;;;;5071277;28;20024;-79
2022/07/30 01:33:41;;;;;;;4.38;2.28;;;15.90;89.30;;;;;;5071159;28;20021;-80
2022/07/30 01:36:13;;;;;;;4.40;2.30;;;15.90;88.80;;;;;;5071158;28;20035;-81
2022/07/30 01:38:43;;;;;;;5.72;2.65;;;15.90;88.90;;;;;;5071235;28;20025;-79
2022/07/30 01:41:09;;;;;;;5.78;2.85;;;15.90;89.30;;;;;;5071170;28;20042;-81
2022/07/30 01:43:36;;;;;;;5.97;3.23;;;15.90;89.60;;;;;;5071064;28;20027;-80
2022/07/30 01:46:04;;;;;;;6.70;2.70;;;15.80;89.80;;;;;;5071052;28;20260;-81
2022/07/30 01:48:31;;;;;;;;;;;15.80;90.10;;;;;;5053568;28;20036;-81
2022/07/30 01:51:00;;;;;;;5.93;3.08;;;15.80;89.30;;;;;;5071165;28;19959;-81
2022/07/30 01:53:28;;;;;;;7.72;2.95;;;15.80;90.10;;;;;;5053415;28;20512;-81
2022/07/30 01:55:55;;;;;;;7.65;2.42;;;15.80;90.30;;;;;;5070950;28;20040;-80
2022/07/30 01:58:25;;;;;;;7.10;2.80;;;15.80;90.30;;;;;;5070923;28;20028;-81
2022/07/30 02:00:53;;;;;;;9.05;3.05;;;15.90;90.40;;;;;;5070922;28;20104;-81
2022/07/30 02:03:19;;;;;;;4.18;2.78;;;15.80;90.40;;;;;;5071071;28;20103;-81
2022/07/30 02:06:00;;;;;;;4.25;2.78;;;15.90;90.40;;;;;;5071054;28;20418;-81
2022/07/30 02:08:45;;;;;;;5.35;2.88;;;15.90;90.50;;;;;;5053666;28;20017;-81
2022/07/30 02:12:27;;;;;;;7.50;3.08;;;16.00;90.40;;;;;;5068917;28;20460;-81
2022/07/30 02:14:04;;;;;;;4.93;2.92;;;16.00;90.40;;;;;;5071063;28;20025;-80
2022/07/30 02:16:35;;;;;;;5.45;2.55;;;16.00;90.40;;;;;;5074171;28;20036;-80
2022/07/30 02:19:17;;;;;;;5.25;2.83;;;16.10;90.40;;;;;;5074441;28;20063;-82
2022/07/30 02:22:04;;;;;;;5.32;2.78;;;16.10;90.30;;;;;;5074074;28;20029;-81
2022/07/30 02:24:31;;;;;;;5.07;2.70;;;16.20;90.20;;;;;;5068825;28;20515;-81
2022/07/30 02:27:02;;;;;;;7.57;3.00;;;16.20;90.20;;;;;;5074480;28;20090;-81
2022/07/30 02:29:29;;;;;;;5.60;3.13;;;16.20;90.20;;;;;;5074441;28;20138;-81
2022/07/30 02:31:58;;;;;;;8.13;2.55;;;16.30;89.90;;;;;;5074305;28;20024;-81
2022/07/30 02:34:25;;;;;;;8.52;3.00;;;16.30;89.50;;;;;;5066676;28;20549;-81
2022/07/30 02:36:52;;;;;;;5.77;3.10;;;16.30;89.50;;;;;;5058046;28;20115;-80
2022/07/30 02:39:20;;;;;;;4.13;1.83;;;16.40;88.90;;;;;;5075765;28;20065;-81
2022/07/30 02:41:47;;;;;;;3.75;1.88;;;16.40;87.90;;;;;;5080248;28;20381;-81
2022/07/30 02:44:18;;;;;;;2.70;1.98;;;16.40;87.50;;;;;;5075997;28;20028;-80
2022/07/30 02:46:46;;;;;;;8.95;3.03;;;16.40;87.30;;;;;;5060219;28;20039;-81
2022/07/30 02:49:13;;;;;;;3.60;2.53;;;16.50;87.00;;;;;;5077733;28;20021;-81
2022/07/30 02:51:41;;;;;;;7.30;3.30;;;16.50;86.50;;;;;;5073979;28;20029;-81
2022/07/30 02:54:08;;;;;;;8.60;2.50;;;16.60;86.00;;;;;;5073635;28;20034;-81
2022/07/30 02:56:35;;;;;;;8.60;2.50;;;16.70;85.60;;;;;;5055343;28;20071;-80
2022/07/30 02:59:04;;;;;;;2.95;2.22;;;16.80;85.20;;;;;;5073507;28;20032;-81
2022/07/30 03:01:31;;;;;;;5.63;2.17;;;16.90;84.80;;;;;;5073666;28;20119;-82
2022/07/30 03:03:58;;;;;;;6.47;2.53;;;17.00;84.10;;;;;;5073546;28;20025;-81
2022/07/30 03:06:24;;;;;;;6.13;2.45;;;17.10;83.30;;;;;;5073540;28;20032;-82
2022/07/30 03:08:52;;;;;;;4.67;2.33;;;17.10;83.00;;;;;;5068505;28;20130;-82
2022/07/30 03:11:19;;;;;;;6.03;1.92;;;17.10;83.00;;;;;;5073668;28;20024;-82
2022/07/30 03:13:45;;;;;;;3.85;1.83;;;17.10;82.50;;;;;;5073746;28;20013;-81
2022/07/30 03:16:12;;;;;;;6.70;2.38;;;17.20;82.30;;;;;;5073270;28;20035;-81
2022/07/30 03:18:40;;;;;;;3.70;2.08;;;17.20;82.10;;;;;;5072769;28;20032;-81
2022/07/30 03:21:09;;;;;;;2.13;1.80;;;17.30;81.60;;;;;;5073291;28;20032;-79
2022/07/30 03:23:36;;;;;;;3.40;2.00;;;17.30;81.30;;;;;;5071970;28;20044;-81
2022/07/30 03:26:04;;;;;;;3.55;2.00;;;17.40;81.10;;;;;;5055257;28;20046;-82
2022/07/30 03:28:32;;;;;;;3.30;2.17;;;17.40;80.80;;;;;;5072794;28;20029;-80
2022/07/30 03:30:59;;;;;;;3.53;1.50;;;17.50;80.50;;;;;;5072922;28;20029;-81
2022/07/30 03:33:25;;;;;;;5.30;1.83;;;17.50;80.60;;;;;;5072730;28;20127;-81
2022/07/30 03:35:52;;;;;;;1.73;1.60;;;17.60;80.10;;;;;;5072036;28;20050;-81
2022/07/30 03:38:19;;;;;;;3.75;1.83;;;17.70;79.50;;;;;;5073083;28;20071;-81
2022/07/30 03:40:45;;;;;;;4.30;1.98;;;17.70;78.30;;;;;;5074524;28;20048;-80
2022/07/30 03:43:13;;;;;;;4.07;2.20;;;17.70;78.40;;;;;;5073331;28;20032;-81
2022/07/30 03:45:41;;;;;;;6.57;2.00;;;17.80;78.10;;;;;;5072824;28;20450;-81
2022/07/30 03:48:09;;;;;;;6.82;2.38;;;17.90;78.00;;;;;;5072728;28;20031;-82
2022/07/30 03:50:36;;;;;;;6.57;2.13;;;18.00;77.50;;;;;;5071602;28;20023;-81
2022/07/30 03:53:03;;;;;;;6.18;1.77;;;18.00;76.70;;;;;;5072618;28;20048;-81
2022/07/30 03:55:30;;;;;;;2.65;1.75;;;18.10;77.00;;;;;;5072535;28;20051;-81
2022/07/30 03:57:56;;;;;;;7.05;1.98;;;18.10;76.50;;;;;;5072388;28;20070;-82
2022/07/30 04:00:23;;;;;;;8.90;2.20;;;18.10;76.10;;;;;;5072841;28;20029;-82
2022/07/30 04:02:48;;;;;;;4.07;2.25;;;18.20;75.80;;;;;;5072535;28;20078;-81
2022/07/30 04:05:15;;;;;;;6.18;1.85;;;18.20;75.40;;;;;;5072408;28;20474;-81
2022/07/30 04:07:41;;;;;;;4.60;1.92;;;18.20;74.90;;;;;;5071122;28;20131;-81
2022/07/30 04:10:08;;;;;;;3.17;1.88;;;18.30;75.00;;;;;;5072427;28;20158;-81
2022/07/30 04:12:34;;;;;;;5.55;2.10;;;18.40;73.40;;;;;;5073010;28;20154;-80
2022/07/30 04:15:00;;;;;;;3.08;1.90;;;18.50;73.10;;;;;;5072787;28;20036;-81
2022/07/30 04:17:38;;;;;;;6.10;1.85;;;18.60;73.50;;;;;;5072332;28;20039;-81
2022/07/30 04:20:22;;;;;;;5.45;1.70;;;18.70;72.90;;;;;;5054541;28;20024;-80
2022/07/30 04:22:49;;;;;;;6.47;1.70;;;18.80;72.30;;;;;;5072388;28;20050;-81
2022/07/30 04:25:15;;;;;;;2.13;1.63;;;18.90;71.90;;;;;;5071193;28;20048;-81
2022/07/30 04:27:41;;;;;;;2.60;1.75;;;19.00;70.30;;;;;;5071911;28;20086;-81
2022/07/30 04:30:08;;;;;;;4.70;2.05;;;18.90;69.40;;;;;;5054734;28;20021;-81
2022/07/30 04:32:35;;;;;;;4.40;1.90;;;19.00;70.20;;;;;;5071956;28;20016;-80
2022/07/30 04:35:02;;;;;;;4.93;1.98;;;19.00;70.10;;;;;;5071964;28;20017;-81
2022/07/30 04:37:29;;;;;;;5.03;1.20;;;19.10;69.80;;;;;;5072330;28;20033;-80
2022/07/30 04:39:58;;;;;;;2.20;1.42;;;19.20;68.60;;;;;;5071722;28;20025;-80
2022/07/30 04:42:27;;;;;;;3.35;1.70;;;19.20;67.50;;;;;;5072652;28;20082;-81
2022/07/30 04:44:54;;;;;;;4.28;1.60;;;19.20;67.20;;;;;;5072107;28;20498;-80
2022/07/30 04:47:21;;;;;;;1.70;1.40;;;19.20;67.70;;;;;;5071710;28;20411;-81
2022/07/30 04:49:48;;;;;;;2.67;1.30;;;19.30;67.00;;;;;;5071784;28;20410;-81
2022/07/30 04:52:15;;;;;;;3.85;1.40;;;19.40;66.20;;;;;;5053566;28;20024;-81
2022/07/30 04:54:50;;;;;;;2.10;1.38;;;19.40;65.70;;;;;;5071618;28;20426;-81
2022/07/30 04:57:18;;;;;;;2.80;1.25;;;19.40;65.20;;;;;;5070441;28;20040;-82
2022/07/30 04:59:44;;;;;;;3.10;1.48;;;19.40;64.50;;;;;;5071632;28;20024;-80
2022/07/30 05:02:14;;;;;;;2.70;1.10;;;19.60;63.80;;;;;;5071595;28;20032;-82
2022/07/30 05:04:40;;;;;;;3.72;1.38;;;20.00;64.20;;;;;;5071656;28;20028;-80
2022/07/30 05:07:07;;;;;;;2.08;1.13;;;21.00;61.70;;;;;;5063255;28;20088;-81
2022/07/30 05:09:33;;;;;;;1.83;1.00;;;21.90;59.80;;;;;;5071565;28;20017;-82
2022/07/30 05:11:59;;;;;;;2.65;1.25;;;22.90;56.30;;;;;;5071478;28;20110;-82
2022/07/30 05:14:26;;;;;;;4.22;1.38;;;24.10;54.40;;;;;;5071440;28;20446;-83
2022/07/30 05:16:53;;;;;;;3.67;1.40;;;25.30;50.60;;;;;;5052443;28;20068;-81
2022/07/30 05:19:20;;;;;;;2.90;1.10;;;25.90;47.80;;;;;;5070983;28;20024;-81
2022/07/30 05:21:46;;;;;;;4.82;1.55;;;26.40;47.20;;;;;;5071364;28;20095;-79
2022/07/30 05:24:11;;;;;;;4.07;1.20;;;26.90;46.50;;;;;;5071213;28;20474;-79
2022/07/30 05:26:37;;;;;;;1.65;0.90;;;27.30;45.00;;;;;;5071166;28;20416;-81
2022/07/30 05:29:03;;;;;;;2.88;1.13;;;27.70;43.50;;;;;;5071213;28;20020;-80
2022/07/30 05:31:29;;;;;;;2.50;1.05;;;27.90;42.80;;;;;;5070222;28;20047;-79
2022/07/30 05:33:55;;;;;;;2.78;1.13;;;27.90;42.60;;;;;;5071103;28;20094;-80
2022/07/30 05:36:21;;;;;;;4.78;1.48;;;28.20;42.50;;;;;;5070965;28;20485;-81
2022/07/30 05:38:47;;;;;;;3.00;1.20;;;28.40;42.30;;;;;;5071187;28;20099;-81
2022/07/30 05:41:13;;;;;;;1.83;1.25;;;28.70;41.70;;;;;;5071193;28;20025;-80
2022/07/30 05:43:40;;;;;;;2.33;1.40;;;29.30;41.40;;;;;;5070932;28;20477;-79
2022/07/30 05:46:05;;;;;;;2.03;1.38;;;29.90;40.90;;;;;;5071454;28;20020;-81
2022/07/30 05:48:34;;;;;;;4.40;1.58;;;30.20;40.50;;;;;;5074087;28;20043;-80
2022/07/30 05:51:01;;;;;;;4.35;1.25;;;30.60;40.70;;;;;;5074721;28;20025;-80
2022/07/30 05:53:27;;;;;;;3.33;1.30;;;30.90;40.40;;;;;;5057241;28;20473;-82
2022/07/30 05:55:52;;;;;;;5.93;2.92;;;31.00;39.40;;;;;;5074657;28;20029;-82
2022/07/30 05:58:18;;;;;;;4.00;1.55;;;31.00;39.70;;;;;;5076042;28;20020;-81
2022/07/30 06:00:44;;;;;;;4.60;1.25;;;31.50;39.30;;;;;;5074879;28;20032;-82
2022/07/30 06:03:10;;;;;;;3.73;1.03;;;31.70;38.90;;;;;;5074615;28;20017;-81
2022/07/30 06:05:36;;;;;;;1.77;0.90;;;32.30;37.50;;;;;;5074571;28;20264;-83
2022/07/30 06:08:03;;;;;;;2.93;1.27;;;33.10;36.60;;;;;;5046465;28;20028;-82
2022/07/30 06:10:30;;;;;;;3.20;0.65;;;33.90;36.10;;;;;;5056483;28;20131;-79
2022/07/30 06:12:55;;;;;;;;;;;34.70;35.00;;;;;;5074636;28;20112;-80
2022/07/30 06:15:21;;;;;;;1.23;0.73;;;35.10;36.30;;;;;;5074554;28;20350;-82
2022/07/30 06:17:48;;;;;;;3.40;0.93;;;35.40;33.90;;;;;;5056238;28;20277;-81
2022/07/30 06:20:16;;;;;;;3.40;0.80;;;35.90;33.60;;;;;;5074338;28;20016;-81
2022/07/30 06:22:42;;;;;;;1.38;0.80;;;36.70;33.10;;;;;;5073963;28;20127;-81
2022/07/30 06:25:09;;;;;;;1.33;0.73;;;36.50;32.40;;;;;;5073405;28;20108;-81
2022/07/30 06:27:35;;;;;;;;;;;36.30;32.40;;;;;;5074518;28;20032;-80
2022/07/30 06:30:01;;;;;;;;;;;36.60;34.00;;;;;;5074687;28;19979;-81
2022/07/30 06:32:27;;;;;;;;;;;37.10;34.60;;;;;;5074599;28;19914;-81
2022/07/30 06:34:52;;;;;;;;;;;37.70;34.80;;;;;;5074315;28;20273;-81
2022/07/30 06:37:18;;;;;;;2.80;0.80;;;38.20;34.20;;;;;;5074098;28;19916;-81
2022/07/30 06:39:44;;;;;;;2.83;0.70;;;38.50;30.90;;;;;;5073027;28;20028;-81
2022/07/30 06:42:09;;;;;;;3.88;0.90;;;38.30;30.60;;;;;;5073664;28;20024;-81
2022/07/30 06:44:35;;;;;;;1.10;0.75;;;37.80;31.00;;;;;;5074515;28;20102;-82
2022/07/30 06:47:01;;;;;;;9.85;1.67;;;37.90;31.10;;;;;;5056774;28;20031;-80
2022/07/30 06:49:29;;;;;;;5.80;0.93;;;38.30;31.70;;;;;;5073925;28;20024;-80
2022/07/30 06:52:02;;;;;;;3.40;0.80;;;38.70;30.50;;;;;;5074442;28;20389;-82
2022/07/30 06:54:28;;;;;;;2.50;1.20;;;38.20;30.90;;;;;;5073993;28;20024;-79
2022/07/30 06:56:54;;;;;;;1.80;0.90;;;37.90;31.20;;;;;;5073328;28;20047;-79
2022/07/30 06:59:20;;;;;;;2.60;1.27;;;37.20;31.20;;;;;;5071409;28;20025;-82
2022/07/30 07:01:46;;;;;;;5.20;1.40;;;35.60;32.30;;;;;;5073749;28;20028;-82
2022/07/30 07:04:12;;;;;;;2.35;1.10;;;34.00;34.10;;;;;;5070434;28;20020;-81
2022/07/30 07:06:38;;;;;;;4.27;1.47;;;32.30;35.10;;;;;;5073248;28;20039;-81
2022/07/30 07:09:04;;;;;;;2.40;0.80;;;32.40;36.20;;;;;;5073378;28;20021;-81
2022/07/30 07:11:30;;;;;;;2.45;1.20;;;33.10;35.50;;;;;;5073443;28;20385;-80
2022/07/30 07:13:56;;;;;;;2.83;1.43;;;32.90;35.70;;;;;;5073505;28;20091;-82
2022/07/30 07:16:24;;;;;;;4.40;1.17;;;32.90;35.60;;;;;;5054422;28;20044;-82
2022/07/30 07:18:53;;;;;;;3.55;1.23;;;32.80;36.20;;;;;;5055622;28;20323;-80
2022/07/30 07:21:20;;;;;;;4.40;1.80;;;34.20;35.40;;;;;;5072944;28;20074;-80
2022/07/30 07:23:47;;;;;;;1.20;0.93;;;34.60;34.20;;;;;;5073503;28;20045;-80
2022/07/30 07:26:14;;;;;;;1.90;0.77;;;33.90;34.70;;;;;;5073018;28;20021;-79
2022/07/30 07:28:39;;;;;;;2.83;0.93;;;32.50;35.00;;;;;;5073013;28;20024;-81
2022/07/30 07:31:07;;;;;;;1.20;0.70;;;31.40;36.20;;;;;;5072149;28;20055;-79
2022/07/30 07:33:33;;;;;;;3.15;1.10;;;29.70;37.50;;;;;;5072675;28;20028;-79
2022/07/30 07:35:59;;;;;;;4.90;1.10;;;29.80;39.80;;;;;;5072818;28;20036;-79
2022/07/30 07:38:24;;;;;;;4.83;1.30;;;31.60;37.80;;;;;;5072811;28;20389;-80
2022/07/30 07:40:50;;;;;;;2.40;0.87;;;33.90;35.70;;;;;;5071888;28;20028;-78
2022/07/30 07:43:16;;;;;;;1.63;1.17;;;34.90;33.70;;;;;;5072253;28;20024;-80
2022/07/30 07:45:43;;;;;;;2.65;1.10;;;34.40;33.00;;;;;;5071309;28;20330;-79
2022/07/30 07:48:09;;;;;;;1.53;1.20;;;31.60;34.50;;;;;;5050306;28;20086;-80
2022/07/30 07:50:38;;;;;;;4.03;1.23;;;31.10;35.70;;;;;;5072357;28;20086;-81
2022/07/30 07:53:05;;;;;;;4.93;1.17;;;29.70;37.80;;;;;;5054518;28;20431;-80
2022/07/30 07:55:31;;;;;;;2.78;1.30;;;29.30;39.40;;;;;;5071556;28;20033;-82
2022/07/30 07:57:57;;;;;;;3.67;1.23;;;30.90;39.30;;;;;;5072435;28;20048;-81
2022/07/30 08:00:23;;;;;;;2.97;1.23;;;31.70;37.20;;;;;;5072504;28;20281;-81
2022/07/30 08:02:48;;;;;;;4.38;1.95;;;31.20;37.00;;;;;;5072213;28;20025;-81
2022/07/30 08:05:15;;;;;;;7.03;1.67;;;30.40;38.50;;;;;;5071550;28;20391;-81
2022/07/30 08:07:43;;;;;;;3.90;1.33;;;30.60;38.40;;;;;;5071417;28;20035;-80
2022/07/30 08:10:10;;;;;;;2.80;0.98;;;32.40;37.10;;;;;;5071062;28;20505;-81
2022/07/30 08:12:35;;;;;;;;;;;33.10;35.30;;;;;;5072238;28;20024;-81
2022/07/30 08:15:02;;;;;;;2.63;0.88;;;32.70;35.70;;;;;;5072159;28;19904;-81
2022/07/30 08:17:28;;;;;;;8.05;1.20;;;32.10;35.00;;;;;;5071878;28;20079;-80
2022/07/30 08:19:59;;;;;;;1.65;1.15;;;31.30;36.00;;;;;;5054559;28;20048;-80
2022/07/30 08:22:25;;;;;;;2.65;1.15;;;30.50;37.10;;;;;;5072474;28;20489;-81
2022/07/30 08:24:51;;;;;;;1.63;0.97;;;29.40;38.50;;;;;;5071498;28;20478;-79
2022/07/30 08:27:17;;;;;;;4.43;1.98;;;28.60;39.60;;;;;;5071126;28;20027;-79
2022/07/30 08:29:43;;;;;;;2.75;0.98;;;28.30;40.90;;;;;;5071495;28;20078;-79
2022/07/30 08:32:09;;;;;;;3.13;1.03;;;30.00;40.60;;;;;;5071912;28;20485;-79
2022/07/30 08:34:35;;;;;;;2.33;1.10;;;31.30;37.70;;;;;;5071754;28;20107;-80
2022/07/30 08:37:01;;;;;;;1.42;0.90;;;30.40;37.50;;;;;;5073188;28;20078;-80
2022/07/30 08:39:27;;;;;;;2.70;1.50;;;;;;;;;;5074241;28;20023;-80
2022/07/30 08:41:54;;;;;;;2.15;1.20;;;28.10;39.60;;;;;;5076552;28;20048;-83
2022/07/30 08:44:20;;;;;;;;;;;29.00;40.70;;;;;;5073505;28;20051;-81
2022/07/30 08:46:49;;;;;;;4.30;1.52;;;30.10;39.10;;;;;;5063544;28;19904;-81
2022/07/30 08:49:15;;;;;;;3.08;1.40;;;30.30;39.10;;;;;;5072213;28;20077;-81
2022/07/30 08:51:41;;;;;;;2.07;1.13;;;30.80;38.50;;;;;;5073019;28;20016;-78
2022/07/30 08:54:07;;;;;;;3.10;1.30;;;32.90;36.60;;;;;;5071603;28;20078;-79
2022/07/30 08:56:33;;;;;;;2.45;1.25;;;36.30;34.30;;;;;;5071255;28;20401;-83
2022/07/30 08:59:00;;;;;;;5.32;1.55;;;36.80;32.50;;;;;;5070909;28;20074;-80
2022/07/30 09:01:26;;;;;;;4.60;1.98;;;38.20;31.20;;;;;;5070218;28;20394;-80
2022/07/30 09:03:52;;;;;;;2.92;0.75;;;40.10;30.70;;;;;;5071747;28;20031;-80
2022/07/30 09:06:18;;;;;;;1.45;1.02;;;;;;;;;;5071477;28;20032;-79
2022/07/30 09:08:44;;;;;;;2.35;1.00;;;;;;;;;;5071681;28;20032;-79
2022/07/30 09:11:10;;;;;;;;;;;;;;;;;;5072057;28;20016;-81
2022/07/30 09:13:37;;;;;;;2.60;1.00;;;;;;;;;;5071762;28;20449;-80
2022/07/30 09:16:04;;;;;;;1.42;0.70;;;;;;;;;;5071133;28;20078;-81
2022/07/30 09:18:38;;;;;;;5.10;0.70;;;;;;;;;;5071398;28;20103;-80
2022/07/30 09:21:33;;;;;;;5.18;1.10;;;40.60;29.20;;;;;;5072328;28;20029;-81
2022/07/30 09:24:05;;;;;;;1.65;0.75;;;36.90;29.50;;;;;;5058998;28;20053;-81
2022/07/30 09:26:32;;;;;;;4.13;1.08;;;35.10;30.40;;;;;;5075365;28;20105;-81
2022/07/30 09:29:18;;;;;;;2.63;0.68;;;33.60;31.90;;;;;;5074584;28;20024;-81
2022/07/30 09:31:57;;;;;;;2.53;0.85;;;33.00;32.80;;;;;;5074968;28;20039;-81
2022/07/30 09:34:35;;;;;;;1.45;0.95;;;34.10;32.90;;;;;;5075212;28;20016;-81
2022/07/30 09:37:13;;;;;;;2.67;1.40;;;35.80;31.90;;;;;;5075037;28;20032;-81
2022/07/30 09:39:41;;;;;;;3.53;1.00;;;37.30;30.60;;;;;;5074732;28;20073;-80
2022/07/30 09:42:24;;;;;;;4.05;1.00;;;39.20;28.90;;;;;;5056879;28;20104;-79
2022/07/30 09:44:51;;;;;;;2.53;1.27;;;39.10;29.30;;;;;;5068367;28;20024;-80
2022/07/30 09:47:37;;;;;;;2.20;0.90;;;40.10;28.90;;;;;;5074672;28;20567;-82
2022/07/30 09:50:09;;;;;;;6.60;1.30;;;40.90;27.90;;;;;;5072315;28;20040;-81
2022/07/30 09:52:36;;;;;;;2.53;1.25;;;40.20;27.10;;;;;;5056144;28;20064;-80
2022/07/30 09:55:02;;;;;;;4.40;0.80;;;39.00;27.40;;;;;;5074488;28;20029;-79
2022/07/30 09:57:28;;;;;;;2.75;1.10;;;37.20;27.70;;;;;;5073989;28;20049;-80
2022/07/30 10:00:14;;;;;;;3.43;1.30;;;35.50;29.60;;;;;;5065035;28;20032;-79
2022/07/30 10:02:40;;;;;;;1.80;0.80;;;33.50;30.60;;;;;;5074126;28;20544;-80
2022/07/30 10:05:14;;;;;;;4.13;1.03;;;32.00;32.70;;;;;;5074314;28;20108;-84
2022/07/30 10:07:48;;;;;;;2.90;1.05;;;32.50;32.80;;;;;;5055932;28;20154;-80
2022/07/30 10:10:15;;;;;;;1.67;0.90;;;33.80;31.90;;;;;;5056625;28;20107;-81
2022/07/30 10:12:40;;;;;;;;;;;33.50;30.80;;;;;;5074760;28;20103;-82
2022/07/30 10:15:08;;;;;;;3.28;1.00;;;33.60;31.70;;;;;;5074589;28;20007;-83
2022/07/30 10:17:37;;;;;;;2.17;1.13;;;34.50;31.30;;;;;;5074444;28;20033;-84
2022/07/30 10:20:07;;;;;;;3.28;0.90;;;35.50;30.00;;;;;;5074046;28;20109;-81
2022/07/30 10:22:34;;;;;;;4.55;1.20;;;36.20;30.00;;;;;;5057700;28;20131;-81
2022/07/30 10:25:01;;;;;;;1.13;1.02;;;36.70;29.50;;;;;;5074395;28;20481;-81
2022/07/30 10:27:27;;;;;;;4.47;1.25;;;37.20;29.00;;;;;;5073920;28;20363;-83
2022/07/30 10:29:54;;;;;;;4.88;1.90;;;38.60;28.00;;;;;;5074235;28;20028;-82
2022/07/30 10:32:20;;;;;;;3.33;0.90;;;38.70;28.40;;;;;;5074200;28;20071;-82
2022/07/30 10:34:46;;;;;;;3.58;1.50;;;38.40;27.80;;;;;;5074613;28;20107;-82
2022/07/30 10:37:14;;;;;;;;;;;36.70;28.50;;;;;;5073784;28;20494;-83
2022/07/30 10:39:51;;;;;;;1.50;0.85;;;34.60;28.90;;;;;;5073486;28;19908;-81
2022/07/30 10:43:05;;;;;;;2.30;1.35;;;32.20;30.00;;;;;;5071888;28;20539;-82
2022/07/30 10:45:31;;;;;;;1.73;0.90;;;30.10;32.10;;;;;;5073788;28;20016;-82
2022/07/30 10:47:58;;;;;;;2.58;0.90;;;29.00;34.50;;;;;;5073925;28;20096;-82
2022/07/30 10:50:28;;;;;;;;;;;28.00;35.80;;;;;;5073345;28;20024;-81
2022/07/30 10:52:59;;;;;;;2.20;1.00;;;27.20;36.30;;;;;;5072093;28;19915;-83
2022/07/30 10:55:33;;;;;;;1.95;0.90;;;26.40;38.10;;;;;;5075004;28;20055;-80
2022/07/30 10:58:05;;;;;;;4.30;1.30;;;26.00;38.80;;;;;;5067748;28;20060;-86
2022/07/30 11:00:55;;;;;;;2.42;1.55;;;25.70;39.20;;;;;;5073862;28;20024;-81
2022/07/30 11:03:24;;;;;;;3.05;1.17;;;25.50;40.30;;;;;;5064435;28;20068;-85
2022/07/30 11:05:51;;;;;;;2.53;1.00;;;25.40;38.80;;;;;;5073652;28;20021;-82
2022/07/30 11:08:36;;;;;;;3.03;1.73;;;25.10;39.20;;;;;;5074980;28;20096;-84
2022/07/30 11:11:03;;;;;;;1.30;0.80;;;25.00;39.50;;;;;;5055528;28;20021;-84
2022/07/30 11:13:51;;;;;;;2.63;1.15;;;25.00;39.40;;;;;;5073537;28;20031;-85
2022/07/30 11:16:19;;;;;;;2.05;1.70;;;24.90;39.60;;;;;;5038288;28;20107;-82
2022/07/30 11:19:23;;;;;;;;;;;24.80;40.00;;;;;;5074797;28;20099;-83
2022/07/30 11:22:25;;;;;;;2.65;0.80;;;24.70;39.20;;;;;;5032932;28;20006;-85
2022/07/30 11:24:52;;;;;;;3.05;1.13;;;24.40;39.50;;;;;;5080498;28;20029;-86
2022/07/30 11:27:45;;;;;;;3.40;1.30;;;24.30;39.80;;;;;;5078918;28;20031;-84
2022/07/30 11:30:20;;;;;;;2.90;1.33;;;24.10;39.90;;;;;;5077548;28;20050;-87
2022/07/30 11:33:02;;;;;;;4.25;1.42;;;24.10;41.00;;;;;;5075577;28;20021;-86
2022/07/30 11:35:29;;;;;;;4.40;2.38;;;24.00;41.80;;;;;;5073527;28;20064;-84
2022/07/30 11:37:55;;;;;;;;;;;24.00;41.60;;;;;;5073674;28;20164;-84
2022/07/30 11:40:22;;;;;;;3.90;1.40;;;24.10;41.10;;;;;;5072758;28;19908;-85
2022/07/30 11:42:48;;;;;;;1.90;1.35;;;24.10;41.50;;;;;;5073063;28;20366;-85
2022/07/30 11:45:17;;;;;;;4.07;1.63;;;24.20;41.40;;;;;;5077962;28;20021;-85
2022/07/30 11:47:53;;;;;;;1.75;1.05;;;24.20;40.40;;;;;;5074178;28;20420;-87
2022/07/30 11:50:22;;;;;;;2.17;1.35;;;24.10;40.00;;;;;;5055941;28;20040;-87
2022/07/30 11:52:53;;;;;;;3.63;1.00;;;24.10;40.60;;;;;;5072611;28;20027;-86
2022/07/30 11:55:32;;;;;;;3.17;0.95;;;24.20;40.40;;;;;;5073230;28;20512;-86
2022/07/30 11:58:00;;;;;;;2.70;1.00;;;24.20;39.60;;;;;;5073166;28;20059;-86
2022/07/30 12:00:41;;;;;;;2.50;1.00;;;24.10;39.50;;;;;;5072903;28;20083;-85
2022/07/30 12:03:13;;;;;;;2.65;1.15;;;24.00;39.60;;;;;;5060151;28;20021;-86
2022/07/30 12:05:40;;;;;;;2.33;1.20;;;24.00;40.20;;;;;;5073051;28;20023;-87
2022/07/30 12:08:07;;;;;;;2.00;1.02;;;23.90;39.50;;;;;;5074469;28;20016;-88
2022/07/30 12:10:39;;;;;;;2.25;1.38;;;24.00;39.40;;;;;;5078504;28;20059;-87
2022/07/30 12:13:09;;;;;;;3.40;1.48;;;24.00;39.60;;;;;;5075702;28;20032;-85
2022/07/30 12:15:38;;;;;;;3.20;1.05;;;24.20;39.60;;;;;;5057628;28;20105;-87
2022/07/30 12:18:04;;;;;;;3.67;1.00;;;24.20;39.20;;;;;;5073102;28;20040;-83
2022/07/30 12:20:30;;;;;;;1.55;1.02;;;24.20;39.70;;;;;;5073418;28;20021;-84
2022/07/30 12:22:56;;;;;;;2.53;1.02;;;24.10;39.60;;;;;;5072337;28;20036;-85
2022/07/30 12:25:22;;;;;;;2.50;1.30;;;24.00;39.90;;;;;;5071675;28;20083;-83
2022/07/30 12:27:49;;;;;;;1.40;1.10;;;23.90;40.60;;;;;;5073094;28;20021;-87
2022/07/30 12:30:17;;;;;;;2.30;1.45;;;23.90;40.10;;;;;;5073560;28;20062;-86
2022/07/30 12:32:44;;;;;;;1.38;1.00;;;23.70;40.70;;;;;;5054253;28;20036;-84
2022/07/30 12:35:10;;;;;;;9.98;1.05;;;23.70;40.00;;;;;;5071691;28;20024;-84
2022/07/30 12:37:37;;;;;;;7.10;1.08;;;23.70;40.10;;;;;;5072916;28;20047;-86
2022/07/30 12:40:05;;;;;;;5.40;1.20;;;23.70;39.90;;;;;;5072228;28;20020;-84
2022/07/30 12:42:31;;;;;;;4.38;2.80;;;23.80;40.30;;;;;;5071688;28;20062;-84
2022/07/30 12:44:57;;;;;;;8.40;2.78;;;23.80;40.90;;;;;;5072515;28;20025;-85
2022/07/30 12:47:24;;;;;;;2.58;1.17;;;23.90;40.80;;;;;;5072050;28;20021;-86
2022/07/30 12:49:51;;;;;;;3.00;1.25;;;24.00;39.80;;;;;;5071898;28;20043;-87
2022/07/30 12:52:31;;;;;;;2.58;1.50;;;23.90;39.80;;;;;;5072393;28;20028;-85
2022/07/30 12:55:11;;;;;;;3.63;1.58;;;24.00;40.70;;;;;;5073121;28;20096;-86
2022/07/30 12:57:55;;;;;;;1.85;1.27;;;24.00;40.20;;;;;;5071943;28;20036;-82
2022/07/30 13:00:22;;;;;;;1.85;1.00;;;24.00;39.90;;;;;;5074414;28;20074;-84
2022/07/30 13:02:48;;;;;;;3.55;1.58;;;24.10;39.90;;;;;;5053534;28;20377;-81